Time;durP1;ratioP1;P1;durP2;ratioP2;P2;SDS_P1;SDS_P2;PMS_P1;PMS_P2;Temp;Humidity;BMP_temperature;BMP_pressure;BME280_temperature;BME280_humidity;BME280_pressure;Samples;Min_cycle;Max_cycle;Signal;HPM_P1;HPM_P2
2021/10/03 00:00:37;;;;;;;1.02;0.93;;;17.30;88.40;;;;;;5002802;28;20044;-76
2021/10/03 00:03:09;;;;;;;1.20;0.93;;;17.40;88.30;;;;;;5003238;28;20030;-76
2021/10/03 00:05:36;;;;;;;0.77;0.77;;;17.40;88.30;;;;;;5006985;28;20033;-77
2021/10/03 00:08:04;;;;;;;1.00;0.90;;;17.40;88.30;;;;;;5018137;28;20048;-77
2021/10/03 00:10:29;;;;;;;0.68;0.68;;;17.40;88.20;;;;;;5017878;28;20483;-77
2021/10/03 00:13:02;;;;;;;1.40;0.90;;;17.40;88.10;;;;;;5010514;28;20068;-77
2021/10/03 00:15:29;;;;;;;1.73;1.00;;;17.50;88.10;;;;;;5010671;28;20026;-77
2021/10/03 00:17:56;;;;;;;2.45;1.00;;;17.50;88.10;;;;;;5009437;28;20121;-77
2021/10/03 00:20:21;;;;;;;1.60;0.90;;;17.50;88.10;;;;;;5010221;28;20067;-77
2021/10/03 00:22:47;;;;;;;0.90;0.90;;;17.50;88.00;;;;;;5009819;28;20419;-77
2021/10/03 00:25:13;;;;;;;2.90;1.00;;;17.50;88.00;;;;;;5009473;28;20118;-77
2021/10/03 00:27:40;;;;;;;0.85;0.85;;;17.50;87.90;;;;;;5009785;28;20018;-77
2021/10/03 00:30:07;;;;;;;0.93;0.90;;;17.50;88.00;;;;;;5010194;28;20026;-76
2021/10/03 00:32:32;;;;;;;0.85;0.80;;;17.60;88.00;;;;;;5009541;28;20120;-76
2021/10/03 00:34:58;;;;;;;0.98;0.98;;;17.60;87.90;;;;;;5009933;28;20492;-77
2021/10/03 00:37:23;;;;;;;0.90;0.90;;;17.60;87.90;;;;;;5009590;28;20036;-77
2021/10/03 00:39:49;;;;;;;1.88;0.90;;;17.60;87.90;;;;;;5010105;28;20017;-77
2021/10/03 00:42:15;;;;;;;0.93;0.82;;;17.60;87.90;;;;;;5009838;28;20063;-77
2021/10/03 00:44:41;;;;;;;0.75;0.73;;;17.60;87.80;;;;;;5009539;28;20038;-77
2021/10/03 00:47:07;;;;;;;1.00;0.80;;;17.60;87.70;;;;;;5007668;28;20541;-77
2021/10/03 00:49:36;;;;;;;0.80;0.80;;;17.60;87.60;;;;;;5010081;28;20112;-77
2021/10/03 00:52:04;;;;;;;0.88;0.80;;;17.70;87.70;;;;;;5015841;28;20048;-77
2021/10/03 00:54:31;;;;;;;0.70;0.70;;;17.70;87.60;;;;;;5017207;28;20030;-76
2021/10/03 00:56:57;;;;;;;0.98;0.80;;;17.70;87.50;;;;;;5009287;28;20047;-77
2021/10/03 00:59:23;;;;;;;0.98;0.80;;;17.70;87.30;;;;;;5009582;28;20093;-77
2021/10/03 01:01:49;;;;;;;0.70;0.70;;;17.80;87.30;;;;;;5009540;28;20030;-77
2021/10/03 01:04:14;;;;;;;0.88;0.70;;;17.80;87.30;;;;;;5007980;28;20108;-77
2021/10/03 01:06:41;;;;;;;0.50;0.50;;;17.80;87.40;;;;;;5009152;28;20184;-77
2021/10/03 01:09:07;;;;;;;1.15;0.80;;;17.80;87.40;;;;;;5021982;28;20057;-77
2021/10/03 01:11:33;;;;;;;0.70;0.70;;;17.80;87.40;;;;;;5009556;28;20561;-77
2021/10/03 01:13:58;;;;;;;1.45;0.85;;;17.80;87.50;;;;;;5015210;28;20033;-77
2021/10/03 01:16:24;;;;;;;0.65;0.60;;;17.80;87.50;;;;;;5008955;28;20099;-77
2021/10/03 01:18:49;;;;;;;0.70;0.70;;;17.80;87.50;;;;;;5008400;28;20075;-77
2021/10/03 01:21:15;;;;;;;0.60;0.60;;;17.80;87.50;;;;;;5008392;28;20026;-77
2021/10/03 01:23:42;;;;;;;1.30;0.80;;;17.80;87.60;;;;;;5008616;28;20033;-77
2021/10/03 01:26:09;;;;;;;1.25;0.70;;;17.80;87.70;;;;;;5007666;28;20109;-77
2021/10/03 01:28:34;;;;;;;0.70;0.63;;;17.70;87.70;;;;;;5008647;28;20482;-77
2021/10/03 01:31:02;;;;;;;0.55;0.50;;;17.70;87.80;;;;;;5009234;28;20026;-77
2021/10/03 01:33:29;;;;;;;1.10;0.70;;;17.70;87.90;;;;;;5024887;28;20049;-77
2021/10/03 01:35:55;;;;;;;1.10;0.88;;;17.70;88.20;;;;;;5009047;28;20435;-77
2021/10/03 01:38:21;;;;;;;1.05;0.70;;;17.60;88.60;;;;;;5008608;28;20022;-76
2021/10/03 01:40:48;;;;;;;0.70;0.57;;;17.60;88.70;;;;;;5009471;28;20022;-76
2021/10/03 01:43:15;;;;;;;0.60;0.60;;;17.60;88.70;;;;;;5024970;28;20033;-76
2021/10/03 01:45:41;;;;;;;0.95;0.70;;;17.60;88.90;;;;;;5001471;28;20025;-77
2021/10/03 01:48:11;;;;;;;0.65;0.65;;;17.60;88.90;;;;;;5008348;28;20070;-76
2021/10/03 01:50:45;;;;;;;0.80;0.75;;;17.60;89.00;;;;;;5008712;28;20032;-77
2021/10/03 01:53:19;;;;;;;1.42;0.73;;;17.60;89.30;;;;;;5008649;28;20034;-77
2021/10/03 01:55:47;;;;;;;0.63;0.60;;;17.50;89.60;;;;;;5009079;28;20014;-77
2021/10/03 01:58:15;;;;;;;1.10;1.00;;;17.50;89.80;;;;;;5008310;28;20064;-77
2021/10/03 02:00:43;;;;;;;1.13;0.70;;;17.50;90.00;;;;;;5022423;28;20104;-77
2021/10/03 02:03:09;;;;;;;1.02;0.77;;;17.50;90.00;;;;;;5010324;28;20475;-77
2021/10/03 02:05:38;;;;;;;1.45;0.75;;;17.50;90.00;;;;;;5007173;28;20104;-77
2021/10/03 02:08:06;;;;;;;1.95;0.70;;;17.50;90.00;;;;;;5008246;28;20384;-77
2021/10/03 02:10:32;;;;;;;0.90;0.70;;;17.60;90.00;;;;;;5020894;28;20103;-77
2021/10/03 02:12:58;;;;;;;1.98;0.70;;;17.60;90.00;;;;;;5012100;28;20034;-78
2021/10/03 02:15:24;;;;;;;0.77;0.60;;;17.60;90.00;;;;;;5008444;28;20028;-77
2021/10/03 02:17:50;;;;;;;0.80;0.73;;;17.60;90.10;;;;;;5008154;28;20034;-77
2021/10/03 02:20:19;;;;;;;1.25;0.70;;;17.60;90.20;;;;;;5008443;28;20026;-77
2021/10/03 02:22:45;;;;;;;0.90;0.90;;;17.60;90.20;;;;;;5008237;28;20030;-77
2021/10/03 02:25:12;;;;;;;0.80;0.80;;;17.60;90.20;;;;;;5008173;28;20030;-77
2021/10/03 02:27:38;;;;;;;0.80;0.73;;;17.60;90.20;;;;;;5008098;28;20075;-78
2021/10/03 02:30:05;;;;;;;0.80;0.70;;;17.60;90.20;;;;;;5008056;28;20022;-78
2021/10/03 02:32:31;;;;;;;0.70;0.70;;;17.60;90.20;;;;;;5008166;28;20045;-78
2021/10/03 02:34:57;;;;;;;0.70;0.70;;;17.60;90.20;;;;;;4994817;28;20026;-77
2021/10/03 02:37:24;;;;;;;0.60;0.60;;;17.60;90.20;;;;;;5007404;28;20097;-77
2021/10/03 02:39:50;;;;;;;0.85;0.60;;;17.60;90.20;;;;;;5008316;28;20075;-77
2021/10/03 02:42:16;;;;;;;1.15;0.80;;;17.60;90.20;;;;;;5008039;28;20026;-77
2021/10/03 02:44:41;;;;;;;0.63;0.63;;;17.60;90.20;;;;;;5007656;28;20116;-77
2021/10/03 02:47:11;;;;;;;1.35;0.80;;;17.60;90.30;;;;;;5007729;28;20100;-76
2021/10/03 02:49:38;;;;;;;1.05;0.82;;;17.60;90.30;;;;;;5007958;28;20022;-76
2021/10/03 02:52:04;;;;;;;0.65;0.65;;;17.60;90.30;;;;;;5007536;28;20022;-76
2021/10/03 02:54:30;;;;;;;0.77;0.60;;;17.60;90.30;;;;;;5007082;28;20045;-76
2021/10/03 02:56:56;;;;;;;1.02;0.80;;;17.60;90.30;;;;;;5006585;28;20022;-76
2021/10/03 02:59:21;;;;;;;0.80;0.80;;;17.60;90.40;;;;;;5008107;28;20585;-75
2021/10/03 03:01:47;;;;;;;0.80;0.77;;;17.60;90.40;;;;;;5014213;28;20148;-77
2021/10/03 03:04:12;;;;;;;1.33;0.80;;;17.60;90.40;;;;;;5017807;28;20030;-77
2021/10/03 03:06:38;;;;;;;0.70;0.70;;;17.60;90.40;;;;;;5007807;28;20083;-75
2021/10/03 03:09:03;;;;;;;0.65;0.63;;;17.60;90.50;;;;;;5007263;28;20026;-78
2021/10/03 03:11:29;;;;;;;0.77;0.60;;;17.60;90.50;;;;;;5006838;28;20029;-77
2021/10/03 03:13:54;;;;;;;0.88;0.77;;;17.60;90.40;;;;;;5007074;28;20393;-77
2021/10/03 03:16:20;;;;;;;0.60;0.60;;;17.70;90.50;;;;;;5010059;28;20026;-77
2021/10/03 03:18:45;;;;;;;1.80;0.90;;;17.70;90.40;;;;;;5010800;28;20537;-76
2021/10/03 03:21:12;;;;;;;0.70;0.60;;;17.70;90.40;;;;;;5011238;28;20105;-77
2021/10/03 03:23:38;;;;;;;0.70;0.70;;;17.70;90.40;;;;;;5007579;28;20025;-76
2021/10/03 03:26:03;;;;;;;1.20;0.80;;;17.70;90.40;;;;;;5010939;28;20105;-76
2021/10/03 03:28:29;;;;;;;0.90;0.70;;;17.70;90.40;;;;;;5010393;28;20018;-76
2021/10/03 03:30:54;;;;;;;1.05;0.80;;;17.70;90.40;;;;;;5010735;28;20101;-76
2021/10/03 03:33:20;;;;;;;1.20;1.10;;;17.70;90.50;;;;;;5010916;28;20083;-75
2021/10/03 03:35:45;;;;;;;1.05;0.82;;;17.70;90.50;;;;;;5010952;28;20026;-76
2021/10/03 03:38:11;;;;;;;1.08;0.75;;;17.70;90.50;;;;;;5010053;28;20034;-77
2021/10/03 03:40:37;;;;;;;1.23;1.10;;;17.70;90.40;;;;;;5010777;28;20026;-76
2021/10/03 03:43:02;;;;;;;1.38;1.08;;;17.70;90.30;;;;;;5010547;28;20034;-76
2021/10/03 03:45:28;;;;;;;1.50;1.00;;;17.70;90.30;;;;;;5003781;28;20018;-76
2021/10/03 03:47:56;;;;;;;2.35;1.10;;;17.70;90.60;;;;;;5010064;28;20500;-76
2021/10/03 03:50:21;;;;;;;1.55;1.00;;;17.70;90.30;;;;;;5010333;28;20380;-76
2021/10/03 03:52:47;;;;;;;0.77;0.77;;;17.80;90.20;;;;;;5010691;28;20042;-75
2021/10/03 03:55:13;;;;;;;1.05;0.50;;;17.80;90.10;;;;;;5011275;28;20030;-75
2021/10/03 03:57:39;;;;;;;0.73;0.47;;;17.80;90.00;;;;;;5009929;28;20392;-76
2021/10/03 04:00:07;;;;;;;0.32;0.32;;;17.70;89.80;;;;;;5010421;28;20033;-75
2021/10/03 04:02:33;;;;;;;1.00;0.35;;;17.60;89.60;;;;;;5010536;28;20022;-76
2021/10/03 04:04:58;;;;;;;0.50;0.30;;;17.50;89.50;;;;;;5010640;28;20495;-75
2021/10/03 04:07:24;;;;;;;0.40;0.30;;;17.40;89.50;;;;;;5009944;28;20063;-76
2021/10/03 04:09:50;;;;;;;0.55;0.30;;;17.40;89.50;;;;;;5010489;28;20379;-76
2021/10/03 04:12:15;;;;;;;0.47;0.30;;;17.30;89.40;;;;;;5007584;28;20030;-75
2021/10/03 04:14:41;;;;;;;0.20;0.20;;;17.20;89.40;;;;;;5002752;28;20034;-75
2021/10/03 04:17:06;;;;;;;0.63;0.30;;;17.20;89.40;;;;;;5010000;28;20071;-75
2021/10/03 04:19:32;;;;;;;0.30;0.30;;;17.10;89.30;;;;;;5009957;28;20057;-75
2021/10/03 04:21:58;;;;;;;0.30;0.30;;;17.10;89.30;;;;;;5011043;28;20025;-75
2021/10/03 04:24:24;;;;;;;0.30;0.30;;;17.00;89.30;;;;;;5009807;28;20083;-75
2021/10/03 04:26:49;;;;;;;0.30;0.30;;;16.90;89.20;;;;;;5009503;28;20045;-75
2021/10/03 04:29:15;;;;;;;0.32;0.22;;;16.90;89.00;;;;;;5010092;28;20415;-75
2021/10/03 04:31:40;;;;;;;0.35;0.30;;;16.80;89.00;;;;;;5009684;28;20476;-76
2021/10/03 04:34:06;;;;;;;0.30;0.30;;;16.80;89.00;;;;;;5009851;28;20037;-76
2021/10/03 04:36:32;;;;;;;0.30;0.30;;;16.80;88.90;;;;;;5010169;28;20022;-76
2021/10/03 04:38:57;;;;;;;0.30;0.30;;;16.80;88.90;;;;;;5009723;28;20030;-75
2021/10/03 04:41:23;;;;;;;0.32;0.20;;;16.70;88.60;;;;;;5009386;28;20070;-75
2021/10/03 04:43:48;;;;;;;0.30;0.30;;;16.70;88.60;;;;;;5009694;28;20037;-75
2021/10/03 04:46:14;;;;;;;0.82;0.30;;;16.70;88.60;;;;;;5009773;28;20402;-75
2021/10/03 04:48:39;;;;;;;0.55;0.30;;;16.70;88.50;;;;;;5008582;28;20354;-75
2021/10/03 04:51:05;;;;;;;0.40;0.38;;;16.70;88.40;;;;;;5009654;28;20034;-75
2021/10/03 04:53:31;;;;;;;0.30;0.30;;;16.70;88.40;;;;;;5009662;28;20040;-75
2021/10/03 04:55:57;;;;;;;0.30;0.30;;;16.70;88.30;;;;;;5009526;28;20037;-75
2021/10/03 04:58:22;;;;;;;0.47;0.30;;;16.60;88.20;;;;;;5008990;28;20029;-75
2021/10/03 05:00:48;;;;;;;0.30;0.25;;;16.60;88.20;;;;;;5024331;28;20472;-75
2021/10/03 05:03:13;;;;;;;0.55;0.30;;;16.60;88.20;;;;;;5010967;28;20079;-75
2021/10/03 05:05:39;;;;;;;0.88;0.30;;;16.60;88.00;;;;;;5009570;28;20101;-75
2021/10/03 05:08:05;;;;;;;0.35;0.35;;;16.60;88.00;;;;;;5008658;28;20025;-76
2021/10/03 05:10:30;;;;;;;0.38;0.20;;;16.60;88.00;;;;;;5009119;28;20179;-76
2021/10/03 05:12:56;;;;;;;0.52;0.30;;;16.60;87.90;;;;;;5025125;28;20068;-76
2021/10/03 05:15:22;;;;;;;0.52;0.30;;;16.60;87.90;;;;;;5010070;28;20026;-76
2021/10/03 05:17:47;;;;;;;0.30;0.30;;;16.60;87.90;;;;;;5008459;28;20101;-76
2021/10/03 05:20:13;;;;;;;0.47;0.30;;;16.60;87.80;;;;;;5009286;28;20038;-76
2021/10/03 05:22:38;;;;;;;0.40;0.40;;;16.70;87.80;;;;;;5009234;28;20022;-77
2021/10/03 05:25:04;;;;;;;0.45;0.40;;;16.60;87.60;;;;;;5009000;28;20034;-76
2021/10/03 05:27:30;;;;;;;0.40;0.40;;;16.60;87.50;;;;;;5008716;28;20017;-76
2021/10/03 05:29:55;;;;;;;0.30;0.30;;;16.50;87.30;;;;;;5009273;28;20029;-76
2021/10/03 05:32:21;;;;;;;0.30;0.30;;;16.50;87.40;;;;;;5008915;28;20639;-77
2021/10/03 05:34:46;;;;;;;0.40;0.40;;;16.50;87.30;;;;;;4997964;28;20087;-76
2021/10/03 05:37:12;;;;;;;0.40;0.40;;;16.50;87.30;;;;;;5001691;28;20014;-75
2021/10/03 05:39:38;;;;;;;0.68;0.40;;;16.40;87.20;;;;;;5008099;28;20491;-75
2021/10/03 05:42:04;;;;;;;0.57;0.50;;;16.40;87.30;;;;;;5008071;28;20108;-76
2021/10/03 05:44:30;;;;;;;0.30;0.30;;;16.30;87.10;;;;;;5004517;28;20102;-76
2021/10/03 05:46:55;;;;;;;0.30;0.30;;;16.30;87.20;;;;;;5003874;28;20040;-77
2021/10/03 05:49:21;;;;;;;0.88;0.52;;;16.30;87.20;;;;;;5007980;28;20353;-77
2021/10/03 05:51:46;;;;;;;0.60;0.50;;;16.20;87.20;;;;;;5008637;28;20376;-76
2021/10/03 05:54:12;;;;;;;0.40;0.40;;;16.20;87.40;;;;;;5008418;28;20042;-77
2021/10/03 05:56:37;;;;;;;0.50;0.50;;;16.30;87.40;;;;;;5008806;28;20060;-77
2021/10/03 05:59:11;;;;;;;0.60;0.60;;;16.20;87.30;;;;;;5008032;28;20045;-77
2021/10/03 06:01:37;;;;;;;0.73;0.45;;;16.20;87.30;;;;;;5016635;28;20555;-77
2021/10/03 06:04:03;;;;;;;0.43;0.43;;;16.20;87.30;;;;;;5007293;28;20112;-76
2021/10/03 06:06:29;;;;;;;0.40;0.40;;;16.20;87.30;;;;;;5007708;28;20119;-77
2021/10/03 06:08:54;;;;;;;0.60;0.40;;;16.30;87.30;;;;;;5007663;28;20032;-77
2021/10/03 06:11:20;;;;;;;0.43;0.43;;;16.30;87.10;;;;;;5009493;28;20051;-77
2021/10/03 06:13:45;;;;;;;0.45;0.45;;;16.20;87.10;;;;;;5022006;28;20561;-76
2021/10/03 06:16:10;;;;;;;0.50;0.50;;;16.30;87.10;;;;;;5085680;28;20028;-77
2021/10/03 06:18:36;;;;;;;0.93;0.60;;;16.20;87.00;;;;;;5031935;28;20092;-75
2021/10/03 06:21:02;;;;;;;0.80;0.60;;;16.20;87.10;;;;;;5013508;28;20017;-75
2021/10/03 06:23:27;;;;;;;0.47;0.47;;;16.20;87.20;;;;;;5007811;28;20029;-75
2021/10/03 06:25:53;;;;;;;0.30;0.30;;;16.20;87.10;;;;;;5006018;28;20029;-75
2021/10/03 06:28:19;;;;;;;0.50;0.50;;;16.30;87.00;;;;;;5006751;28;20025;-75
2021/10/03 06:30:44;;;;;;;0.55;0.55;;;16.30;86.90;;;;;;5004569;28;20452;-75
2021/10/03 06:33:10;;;;;;;0.40;0.40;;;16.30;86.90;;;;;;5004189;28;20074;-75
2021/10/03 06:35:35;;;;;;;0.40;0.40;;;16.20;86.90;;;;;;5002647;28;20057;-75
2021/10/03 06:38:01;;;;;;;0.40;0.40;;;16.20;86.80;;;;;;5001120;28;20049;-75
2021/10/03 06:40:27;;;;;;;1.20;0.52;;;16.20;86.80;;;;;;4999134;28;20088;-75
2021/10/03 06:42:53;;;;;;;0.47;0.47;;;16.20;86.80;;;;;;5007337;28;20029;-75
2021/10/03 06:45:19;;;;;;;0.30;0.30;;;16.20;86.90;;;;;;5011365;28;20030;-75
2021/10/03 06:47:44;;;;;;;0.80;0.55;;;16.20;87.00;;;;;;5007435;28;20106;-74
2021/10/03 06:50:11;;;;;;;0.30;0.30;;;16.20;86.90;;;;;;5002238;28;20018;-76
2021/10/03 06:52:36;;;;;;;0.40;0.40;;;16.30;86.90;;;;;;5023738;28;20462;-75
2021/10/03 06:55:03;;;;;;;0.60;0.50;;;16.30;86.80;;;;;;5029724;28;20037;-75
2021/10/03 06:57:28;;;;;;;1.55;0.47;;;16.30;86.80;;;;;;5011110;28;20071;-76
2021/10/03 06:59:54;;;;;;;0.40;0.32;;;16.30;86.70;;;;;;5017022;28;20598;-74
2021/10/03 07:02:28;;;;;;;0.30;0.30;;;16.40;86.70;;;;;;5021625;28;20032;-75
2021/10/03 07:04:53;;;;;;;0.75;0.40;;;16.40;86.50;;;;;;5015385;28;20573;-75
2021/10/03 07:07:19;;;;;;;0.60;0.60;;;16.40;86.40;;;;;;5009008;28;20026;-75
2021/10/03 07:09:45;;;;;;;0.65;0.50;;;16.40;86.40;;;;;;5011078;28;20100;-75
2021/10/03 07:12:11;;;;;;;0.40;0.40;;;16.40;86.40;;;;;;5010315;28;20740;-76
2021/10/03 07:14:37;;;;;;;0.98;0.40;;;16.40;86.40;;;;;;5009510;28;20026;-77
2021/10/03 07:17:03;;;;;;;0.45;0.45;;;16.30;86.30;;;;;;5010716;28;20030;-75
2021/10/03 07:19:29;;;;;;;1.27;0.65;;;16.30;86.40;;;;;;5036700;28;20022;-75
2021/10/03 07:21:54;;;;;;;0.57;0.50;;;16.30;86.50;;;;;;5032776;28;20449;-77
2021/10/03 07:24:20;;;;;;;0.80;0.80;;;16.20;86.30;;;;;;5013561;28;20118;-77
2021/10/03 07:26:45;;;;;;;1.13;0.70;;;16.20;86.30;;;;;;5015012;28;20032;-78
2021/10/03 07:29:11;;;;;;;0.50;0.50;;;16.10;86.50;;;;;;5028700;28;20511;-77
2021/10/03 07:31:36;;;;;;;0.43;0.40;;;16.10;86.50;;;;;;5002759;28;20041;-78
2021/10/03 07:34:02;;;;;;;0.50;0.50;;;16.10;86.50;;;;;;5000841;28;20054;-78
2021/10/03 07:36:29;;;;;;;0.93;0.63;;;16.10;86.50;;;;;;5003878;28;20025;-76
2021/10/03 07:38:54;;;;;;;0.60;0.60;;;16.10;86.30;;;;;;5003358;28;20565;-77
2021/10/03 07:41:21;;;;;;;1.20;0.85;;;16.10;86.40;;;;;;5008091;28;20051;-77
2021/10/03 07:43:47;;;;;;;1.00;0.50;;;16.10;86.50;;;;;;5004703;28;20042;-76
2021/10/03 07:46:13;;;;;;;0.50;0.50;;;16.00;86.40;;;;;;5009922;28;20040;-77
2021/10/03 07:48:39;;;;;;;0.43;0.43;;;16.00;86.50;;;;;;5006517;28;20026;-76
2021/10/03 07:51:04;;;;;;;0.50;0.50;;;16.00;86.50;;;;;;5005535;28;20041;-76
2021/10/03 07:53:30;;;;;;;0.60;0.60;;;16.00;86.50;;;;;;5005314;28;20026;-79
2021/10/03 07:55:56;;;;;;;0.73;0.63;;;16.00;86.40;;;;;;5007226;28;20117;-77
2021/10/03 07:58:22;;;;;;;0.68;0.60;;;16.00;86.40;;;;;;5003594;28;20365;-75
2021/10/03 08:00:48;;;;;;;0.80;0.73;;;15.90;86.40;;;;;;5001408;28;20073;-76
2021/10/03 08:03:17;;;;;;;0.95;0.80;;;15.90;86.50;;;;;;5005304;28;20032;-76
2021/10/03 08:05:44;;;;;;;0.90;0.90;;;15.90;86.50;;;;;;5004556;28;20452;-77
2021/10/03 08:08:10;;;;;;;1.00;0.80;;;15.90;86.50;;;;;;5002940;28;20017;-77
2021/10/03 08:10:37;;;;;;;1.70;1.50;;;15.90;86.60;;;;;;5001301;28;20087;-76
2021/10/03 08:13:03;;;;;;;1.75;1.27;;;15.90;86.60;;;;;;4999369;28;20069;-77
2021/10/03 08:15:29;;;;;;;1.70;1.60;;;15.90;86.60;;;;;;5002323;28;20372;-77
2021/10/03 08:17:55;;;;;;;1.08;1.00;;;15.90;86.50;;;;;;5003487;28;20030;-78
2021/10/03 08:20:22;;;;;;;1.10;1.00;;;15.90;86.70;;;;;;4999313;28;20026;-77
2021/10/03 08:22:48;;;;;;;0.80;0.75;;;15.90;86.70;;;;;;5002192;28;20163;-77
2021/10/03 08:25:14;;;;;;;0.60;0.60;;;15.80;86.60;;;;;;5002585;28;20061;-76
2021/10/03 08:27:40;;;;;;;0.73;0.73;;;15.80;86.60;;;;;;5001215;28;20049;-76
2021/10/03 08:30:07;;;;;;;0.85;0.80;;;15.80;86.60;;;;;;4997274;28;20591;-76
2021/10/03 08:32:33;;;;;;;0.82;0.50;;;15.80;87.20;;;;;;5004785;28;20027;-76
2021/10/03 08:34:59;;;;;;;0.60;0.60;;;15.70;86.60;;;;;;5000021;28;20027;-75
2021/10/03 08:37:25;;;;;;;0.60;0.60;;;15.70;86.80;;;;;;5003545;28;20129;-76
2021/10/03 08:39:52;;;;;;;0.43;0.43;;;15.70;86.80;;;;;;5001927;28;20034;-76
2021/10/03 08:42:18;;;;;;;0.57;0.40;;;15.60;86.80;;;;;;4960606;28;1157623;-76
2021/10/03 08:44:43;;;;;;;1.17;0.50;;;15.60;86.80;;;;;;5008199;28;20016;-76
2021/10/03 08:47:09;;;;;;;0.93;0.50;;;15.60;86.90;;;;;;5007620;28;20059;-77
2021/10/03 08:49:35;;;;;;;0.38;0.38;;;15.60;86.90;;;;;;5008266;28;20109;-77
2021/10/03 08:52:01;;;;;;;0.38;0.35;;;15.50;86.80;;;;;;5007915;28;20117;-76
2021/10/03 08:54:27;;;;;;;1.05;0.50;;;15.50;86.90;;;;;;5007746;28;20033;-77
2021/10/03 08:56:58;;;;;;;0.40;0.40;;;15.40;86.70;;;;;;5007280;28;20014;-76
2021/10/03 08:59:25;;;;;;;0.40;0.40;;;15.40;86.70;;;;;;5006967;28;20112;-77
2021/10/03 09:01:56;;;;;;;0.57;0.40;;;15.30;86.70;;;;;;5007331;28;20488;-76
2021/10/03 09:04:32;;;;;;;0.52;0.50;;;15.30;86.90;;;;;;5007151;28;20045;-77
2021/10/03 09:07:12;;;;;;;1.08;0.60;;;15.30;86.80;;;;;;5007608;28;20118;-78
2021/10/03 09:09:58;;;;;;;0.50;0.50;;;15.20;86.80;;;;;;5004560;28;20026;-78
2021/10/03 09:12:32;;;;;;;0.47;0.40;;;15.30;86.90;;;;;;5003515;28;20039;-77
2021/10/03 09:15:00;;;;;;;0.77;0.52;;;15.20;86.80;;;;;;5000827;28;20033;-77
2021/10/03 09:17:29;;;;;;;0.35;0.35;;;15.20;86.90;;;;;;5003235;28;20014;-77
2021/10/03 09:20:08;;;;;;;0.40;0.40;;;15.20;87.00;;;;;;5009344;27;20042;-78
2021/10/03 09:22:59;;;;;;;0.65;0.50;;;15.10;86.90;;;;;;5019225;28;20025;-79
2021/10/03 09:25:41;;;;;;;0.85;0.40;;;15.10;86.90;;;;;;5002278;28;20017;-78
2021/10/03 09:28:20;;;;;;;0.40;0.40;;;15.00;86.90;;;;;;5017412;28;20027;-79
2021/10/03 09:31:04;;;;;;;0.57;0.40;;;15.00;87.00;;;;;;5006770;28;20021;-78
2021/10/03 09:33:57;;;;;;;0.50;0.40;;;14.90;86.90;;;;;;5006892;28;20057;-79
2021/10/03 09:36:33;;;;;;;0.30;0.30;;;14.90;87.00;;;;;;5003640;28;20695;-78
2021/10/03 09:39:08;;;;;;;0.40;0.40;;;14.90;87.00;;;;;;5021106;28;20022;-79
2021/10/03 09:41:38;;;;;;;0.30;0.30;;;14.90;87.10;;;;;;5006003;28;20033;-78
2021/10/03 09:44:12;;;;;;;0.63;0.43;;;14.90;87.20;;;;;;5007582;28;20030;-79
2021/10/03 09:46:47;;;;;;;0.30;0.30;;;14.90;87.20;;;;;;5006200;28;20029;-77
2021/10/03 09:49:15;;;;;;;0.30;0.30;;;14.90;87.20;;;;;;5003138;28;20946;-77
2021/10/03 09:51:43;;;;;;;0.30;0.30;;;14.90;87.20;;;;;;5004201;28;20026;-78
2021/10/03 09:54:10;;;;;;;0.32;0.32;;;14.90;87.20;;;;;;5006497;28;20038;-79
2021/10/03 09:56:36;;;;;;;0.40;0.40;;;14.90;87.00;;;;;;5005567;28;20067;-77
2021/10/03 09:59:04;;;;;;;0.30;0.30;;;15.00;87.10;;;;;;5001677;28;20034;-77
2021/10/03 10:01:47;;;;;;;1.60;0.30;;;15.00;87.00;;;;;;5008250;28;20013;-75
2021/10/03 10:04:13;;;;;;;;;;;15.10;87.00;;;;;;5003781;28;20018;-76
2021/10/03 10:06:43;;;;;;;0.25;0.25;;;15.10;86.80;;;;;;5007339;28;19993;-75
2021/10/03 10:09:19;;;;;;;0.30;0.30;;;15.10;86.80;;;;;;5003213;28;20381;-77
2021/10/03 10:12:06;;;;;;;0.20;0.20;;;15.10;86.80;;;;;;5003843;28;20025;-76
2021/10/03 10:14:43;;;;;;;0.30;0.30;;;15.20;86.70;;;;;;5003263;28;20038;-76
2021/10/03 10:17:30;;;;;;;0.30;0.30;;;15.30;86.60;;;;;;5014399;28;20090;-77
2021/10/03 10:19:57;;;;;;;0.30;0.30;;;15.40;86.60;;;;;;5009038;28;20567;-77
2021/10/03 10:22:22;;;;;;;0.25;0.25;;;15.40;86.40;;;;;;5012415;28;20029;-78
2021/10/03 10:24:52;;;;;;;0.40;0.40;;;15.50;86.40;;;;;;5006832;28;20038;-77
2021/10/03 10:27:21;;;;;;;0.40;0.40;;;15.50;86.20;;;;;;5008492;28;20449;-78
2021/10/03 10:30:00;;;;;;;0.50;0.50;;;15.60;86.20;;;;;;5012678;28;20501;-78
2021/10/03 10:32:28;;;;;;;0.50;0.50;;;15.60;86.20;;;;;;5007568;28;20732;-78
2021/10/03 10:35:09;;;;;;;0.88;0.60;;;15.60;86.10;;;;;;4997069;28;20044;-78
2021/10/03 10:37:50;;;;;;;1.10;0.50;;;15.70;86.10;;;;;;4998393;28;20464;-78
2021/10/03 10:40:21;;;;;;;0.40;0.40;;;15.70;85.90;;;;;;5002009;28;20026;-78
2021/10/03 10:42:47;;;;;;;0.40;0.40;;;15.70;85.90;;;;;;4998065;28;20051;-78
2021/10/03 10:45:28;;;;;;;1.00;0.50;;;15.80;85.90;;;;;;5007612;28;20065;-78
2021/10/03 10:48:15;;;;;;;0.40;0.40;;;15.80;85.80;;;;;;4997087;28;20105;-77
2021/10/03 10:51:00;;;;;;;0.47;0.40;;;15.90;85.70;;;;;;5004345;28;20034;-79
2021/10/03 10:53:31;;;;;;;0.63;0.45;;;15.90;85.70;;;;;;5006865;28;20037;-78
2021/10/03 10:56:05;;;;;;;0.50;0.50;;;15.90;85.70;;;;;;5005439;28;20388;-77
2021/10/03 10:58:36;;;;;;;0.30;0.30;;;15.90;85.70;;;;;;5001148;28;20537;-79
2021/10/03 11:01:11;;;;;;;0.50;0.40;;;15.90;85.60;;;;;;4996898;28;20496;-79
2021/10/03 11:03:42;;;;;;;0.50;0.47;;;16.00;85.60;;;;;;4999799;28;20036;-79
2021/10/03 11:06:14;;;;;;;43.30;31.95;;;16.00;85.50;;;;;;5005007;28;20419;-79
2021/10/03 11:09:00;;;;;;;13.35;9.50;;;16.00;85.50;;;;;;5017134;28;20031;-79
2021/10/03 11:11:28;;;;;;;5.38;3.78;;;16.10;85.40;;;;;;5002577;28;20074;-78
2021/10/03 11:13:57;;;;;;;3.25;2.63;;;16.20;85.30;;;;;;5010137;28;20173;-77
2021/10/03 11:16:28;;;;;;;2.50;2.30;;;16.30;85.20;;;;;;5017527;28;20025;-77
2021/10/03 11:19:07;;;;;;;1.40;1.30;;;16.30;85.00;;;;;;5012717;28;20125;-77
2021/10/03 11:21:55;;;;;;;1.00;0.90;;;16.30;84.90;;;;;;5009413;28;20101;-77
2021/10/03 11:24:28;;;;;;;0.70;0.70;;;16.30;84.90;;;;;;5005625;28;20029;-78
2021/10/03 11:27:06;;;;;;;0.55;0.55;;;16.20;85.10;;;;;;5010917;28;20460;-76
2021/10/03 11:29:38;;;;;;;0.60;0.60;;;16.10;85.10;;;;;;5005768;28;20496;-77
2021/10/03 11:32:10;;;;;;;0.57;0.57;;;16.10;85.40;;;;;;5006362;28;20064;-77
2021/10/03 11:34:37;;;;;;;0.57;0.57;;;16.00;85.50;;;;;;5003005;28;20018;-78
2021/10/03 11:37:14;;;;;;;0.77;0.70;;;16.00;85.60;;;;;;5012132;28;20029;-78
2021/10/03 11:39:50;;;;;;;0.60;0.60;;;16.00;85.70;;;;;;5005675;28;20110;-77
2021/10/03 11:42:48;;;;;;;0.70;0.70;;;16.10;85.70;;;;;;5003527;28;20026;-79
2021/10/03 11:45:22;;;;;;;1.95;0.80;;;16.10;85.60;;;;;;5042396;28;20046;-78
2021/10/03 11:47:49;;;;;;;0.80;0.80;;;16.00;85.60;;;;;;5008387;28;20055;-77
2021/10/03 11:50:26;;;;;;;0.57;0.57;;;15.90;85.80;;;;;;5008531;28;20031;-77
2021/10/03 11:52:55;;;;;;;0.60;0.60;;;15.90;85.80;;;;;;5012076;28;20042;-78
2021/10/03 11:55:34;;;;;;;0.52;0.52;;;15.90;85.80;;;;;;5009710;28;20026;-79
2021/10/03 11:58:04;;;;;;;0.90;0.73;;;15.90;86.60;;;;;;5008786;28;20419;-79
2021/10/03 12:00:30;;;;;;;0.82;0.82;;;15.90;86.00;;;;;;5009317;28;20507;-80
2021/10/03 12:03:03;;;;;;;1.42;0.85;;;16.00;86.10;;;;;;5006505;28;20035;-79
2021/10/03 12:05:29;;;;;;;0.70;0.70;;;16.00;86.00;;;;;;5011248;28;20032;-77
2021/10/03 12:08:15;;;;;;;1.00;1.00;;;16.00;85.80;;;;;;5012500;28;20454;-78
2021/10/03 12:10:55;;;;;;;0.70;0.70;;;16.10;85.70;;;;;;5018948;28;20030;-79
2021/10/03 12:13:26;;;;;;;0.80;0.80;;;16.10;85.50;;;;;;5007177;28;20031;-80
2021/10/03 12:16:15;;;;;;;0.93;0.85;;;16.20;85.40;;;;;;5005953;28;20026;-78
2021/10/03 12:18:45;;;;;;;1.15;1.13;;;16.20;85.40;;;;;;5006243;28;20034;-78
2021/10/03 12:21:26;;;;;;;0.88;0.88;;;16.10;85.30;;;;;;5003433;28;20026;-77
2021/10/03 12:23:53;;;;;;;0.60;0.60;;;16.20;85.50;;;;;;5011002;28;20463;-78
2021/10/03 12:26:20;;;;;;;0.70;0.70;;;16.30;85.50;;;;;;5012167;28;20033;-77
2021/10/03 12:29:13;;;;;;;1.77;0.90;;;16.30;85.40;;;;;;5008737;28;20022;-80
2021/10/03 12:31:51;;;;;;;0.80;0.80;;;16.40;85.30;;;;;;5011803;28;20484;-78
2021/10/03 12:34:16;;;;;;;1.13;1.02;;;16.40;85.20;;;;;;5014017;28;20079;-78
2021/10/03 12:36:54;;;;;;;9.65;8.75;;;16.40;85.10;;;;;;5010825;28;20014;-80
2021/10/03 12:39:27;;;;;;;3.22;2.92;;;16.40;85.20;;;;;;5012037;28;20060;-80
2021/10/03 12:41:56;;;;;;;6.97;6.05;;;16.40;85.10;;;;;;5008333;28;20549;-79
2021/10/03 12:44:23;;;;;;;196.88;152.27;;;16.50;85.10;;;;;;5009357;28;20031;-80
2021/10/03 12:46:49;;;;;;;83.53;61.85;;;16.40;85.10;;;;;;5011677;28;20029;-79
2021/10/03 12:49:15;;;;;;;44.00;33.70;;;16.40;85.20;;;;;;5008635;28;20026;-78
2021/10/03 12:51:40;;;;;;;23.88;18.38;;;16.50;85.30;;;;;;5011904;28;20059;-80